sensor_id;sensor_type;location;lat;lon;timestamp;pressure;altitude;pressure_sealevel;temperature;humidity
23677;BME280;31493;49.058;12.190;2023-03-02T00:01:02;96192.97;;;-0.12;100.00
23677;BME280;31493;49.058;12.190;2023-03-02T00:03:31;96208.19;;;-0.11;100.00
23677;BME280;31493;49.058;12.190;2023-03-02T00:05:58;96195.66;;;-0.20;100.00
23677;BME280;31493;49.058;12.190;2023-03-02T00:08:26;96195.56;;;-0.15;100.00
23677;BME280;31493;49.058;12.190;2023-03-02T00:10:55;96196.19;;;-0.06;100.00
23677;BME280;31493;49.058;12.190;2023-03-02T00:13:26;96195.56;;;-0.15;100.00
23677;BME280;31493;49.058;12.190;2023-03-02T00:15:54;96197.25;;;-0.14;100.00
23677;BME280;31493;49.058;12.190;2023-03-02T00:18:21;96191.34;;;-0.16;100.00
23677;BME280;31493;49.058;12.190;2023-03-02T00:20:48;96188.81;;;-0.16;100.00
23677;BME280;31493;49.058;12.190;2023-03-02T00:23:15;96186.19;;;-0.13;100.00
23677;BME280;31493;49.058;12.190;2023-03-02T00:25:42;96185.50;;;-0.20;100.00
23677;BME280;31493;49.058;12.190;2023-03-02T00:28:11;96189.78;;;-0.22;100.00
23677;BME280;31493;49.058;12.190;2023-03-02T00:30:38;96183.13;;;-0.28;100.00
23677;BME280;31493;49.058;12.190;2023-03-02T00:33:05;96183.94;;;-0.25;100.00
23677;BME280;31493;49.058;12.190;2023-03-02T00:35:36;96187.31;;;-0.25;100.00
23677;BME280;31493;49.058;12.190;2023-03-02T00:38:03;96194.19;;;-0.29;100.00
23677;BME280;31493;49.058;12.190;2023-03-02T00:40:30;96171.25;;;-0.27;100.00
23677;BME280;31493;49.058;12.190;2023-03-02T00:42:57;96180.63;;;-0.29;100.00
23677;BME280;31493;49.058;12.190;2023-03-02T00:45:25;96178.88;;;-0.27;100.00
23677;BME280;31493;49.058;12.190;2023-03-02T00:47:52;96185.78;;;-0.31;100.00
23677;BME280;31493;49.058;12.190;2023-03-02T00:50:19;96189.22;;;-0.33;100.00
23677;BME280;31493;49.058;12.190;2023-03-02T00:52:46;96171.16;;;-0.22;100.00
23677;BME280;31493;49.058;12.190;2023-03-02T00:55:13;96167.97;;;-0.32;100.00
23677;BME280;31493;49.058;12.190;2023-03-02T00:57:40;96172.31;;;-0.36;100.00
23677;BME280;31493;49.058;12.190;2023-03-02T01:00:08;96173.06;;;-0.31;100.00
23677;BME280;31493;49.058;12.190;2023-03-02T01:02:37;96170.56;;;-0.34;100.00
23677;BME280;31493;49.058;12.190;2023-03-02T01:05:08;96162.16;;;-0.37;100.00
23677;BME280;31493;49.058;12.190;2023-03-02T01:07:35;96158.91;;;-0.44;100.00
23677;BME280;31493;49.058;12.190;2023-03-02T01:10:03;96152.81;;;-0.35;100.00
23677;BME280;31493;49.058;12.190;2023-03-02T01:12:30;96148.50;;;-0.33;100.00
23677;BME280;31493;49.058;12.190;2023-03-02T01:14:57;96158.75;;;-0.36;100.00
23677;BME280;31493;49.058;12.190;2023-03-02T01:17:25;96152.03;;;-0.39;100.00
23677;BME280;31493;49.058;12.190;2023-03-02T01:19:53;96145.31;;;-0.41;100.00
23677;BME280;31493;49.058;12.190;2023-03-02T01:22:21;96151.00;;;-0.30;100.00
23677;BME280;31493;49.058;12.190;2023-03-02T01:24:48;96143.47;;;-0.35;100.00
23677;BME280;31493;49.058;12.190;2023-03-02T01:27:15;96132.63;;;-0.43;100.00
23677;BME280;31493;49.058;12.190;2023-03-02T01:29:42;96133.63;;;-0.48;100.00
23677;BME280;31493;49.058;12.190;2023-03-02T01:32:09;96125.94;;;-0.47;100.00
23677;BME280;31493;49.058;12.190;2023-03-02T01:34:36;96125.06;;;-0.46;100.00
23677;BME280;31493;49.058;12.190;2023-03-02T01:37:04;96128.53;;;-0.48;100.00
23677;BME280;31493;49.058;12.190;2023-03-02T01:39:31;96125.09;;;-0.47;100.00
23677;BME280;31493;49.058;12.190;2023-03-02T01:41:58;96124.28;;;-0.49;100.00
23677;BME280;31493;49.058;12.190;2023-03-02T01:44:38;96117.53;;;-0.49;100.00
23677;BME280;31493;49.058;12.190;2023-03-02T01:47:11;96115.03;;;-0.52;100.00
23677;BME280;31493;49.058;12.190;2023-03-02T01:49:43;96123.47;;;-0.50;100.00
23677;BME280;31493;49.058;12.190;2023-03-02T01:52:14;96112.41;;;-0.47;100.00
23677;BME280;31493;49.058;12.190;2023-03-02T01:54:41;96117.44;;;-0.46;100.00
23677;BME280;31493;49.058;12.190;2023-03-02T01:57:10;96116.69;;;-0.51;100.00
23677;BME280;31493;49.058;12.190;2023-03-02T01:59:39;96118.41;;;-0.51;100.00
23677;BME280;31493;49.058;12.190;2023-03-02T02:02:09;96123.50;;;-0.51;100.00
23677;BME280;31493;49.058;12.190;2023-03-02T02:04:39;96116.75;;;-0.52;100.00
23677;BME280;31493;49.058;12.190;2023-03-02T02:07:08;96116.84;;;-0.57;100.00
23677;BME280;31493;49.058;12.190;2023-03-02T02:09:39;96107.59;;;-0.60;100.00
23677;BME280;31493;49.058;12.190;2023-03-02T02:12:11;96113.38;;;-0.53;100.00
23677;BME280;31493;49.058;12.190;2023-03-02T02:14:39;96111.66;;;-0.52;100.00
23677;BME280;31493;49.058;12.190;2023-03-02T02:17:07;96105.84;;;-0.58;100.00
23677;BME280;31493;49.058;12.190;2023-03-02T02:19:42;96109.19;;;-0.56;100.00
23677;BME280;31493;49.058;12.190;2023-03-02T02:22:10;96113.47;;;-0.58;100.00
23677;BME280;31493;49.058;12.190;2023-03-02T02:24:44;96109.22;;;-0.57;100.00
23677;BME280;31493;49.058;12.190;2023-03-02T02:27:13;96103.34;;;-0.59;100.00
23677;BME280;31493;49.058;12.190;2023-03-02T02:29:43;96114.41;;;-0.62;100.00
23677;BME280;31493;49.058;12.190;2023-03-02T02:32:15;96116.81;;;-0.56;100.00
23677;BME280;31493;49.058;12.190;2023-03-02T02:34:46;96113.66;;;-0.65;100.00
23677;BME280;31493;49.058;12.190;2023-03-02T02:37:19;96113.47;;;-0.58;100.00
23677;BME280;31493;49.058;12.190;2023-03-02T02:39:49;96100.91;;;-0.64;100.00
23677;BME280;31493;49.058;12.190;2023-03-02T02:42:19;96103.41;;;-0.62;100.00
23677;BME280;31493;49.058;12.190;2023-03-02T02:44:55;96114.44;;;-0.63;100.00
23677;BME280;31493;49.058;12.190;2023-03-02T02:47:23;96121.28;;;-0.65;100.00
23677;BME280;31493;49.058;12.190;2023-03-02T02:49:51;96112.88;;;-0.67;100.00
23677;BME280;31493;49.058;12.190;2023-03-02T02:52:21;96103.53;;;-0.68;100.00
23677;BME280;31493;49.058;12.190;2023-03-02T02:54:51;96105.25;;;-0.67;100.00
23677;BME280;31493;49.058;12.190;2023-03-02T02:57:22;96107.75;;;-0.66;100.00
23677;BME280;31493;49.058;12.190;2023-03-02T02:59:52;96112.94;;;-0.70;100.00
23677;BME280;31493;49.058;12.190;2023-03-02T03:02:23;96106.22;;;-0.73;100.00
23677;BME280;31493;49.058;12.190;2023-03-02T03:04:50;96098.53;;;-0.71;100.00
23677;BME280;31493;49.058;12.190;2023-03-02T03:07:30;96103.69;;;-0.74;100.00
23677;BME280;31493;49.058;12.190;2023-03-02T03:10:00;96107.06;;;-0.72;100.00
23677;BME280;31493;49.058;12.190;2023-03-02T03:12:32;96110.47;;;-0.73;100.00
23677;BME280;31493;49.058;12.190;2023-03-02T03:15:00;96101.28;;;-0.81;100.00
23677;BME280;31493;49.058;12.190;2023-03-02T03:17:28;96103.81;;;-0.81;100.00
23677;BME280;31493;49.058;12.190;2023-03-02T03:19:55;96101.28;;;-0.81;100.00
23677;BME280;31493;49.058;12.190;2023-03-02T03:22:32;96092.97;;;-0.86;100.00
23677;BME280;31493;49.058;12.190;2023-03-02T03:24:59;96092.97;;;-0.87;100.00
23677;BME280;31493;49.058;12.190;2023-03-02T03:27:26;96105.75;;;-0.90;100.00
23677;BME280;31493;49.058;12.190;2023-03-02T03:29:55;96097.16;;;-0.85;100.00
23677;BME280;31493;49.058;12.190;2023-03-02T03:32:22;96103.13;;;-0.87;100.00
23677;BME280;31493;49.058;12.190;2023-03-02T03:34:49;96102.41;;;-0.92;100.00
23677;BME280;31493;49.058;12.190;2023-03-02T03:37:18;96102.41;;;-0.92;100.00
23677;BME280;31493;49.058;12.190;2023-03-02T03:39:45;96098.03;;;-0.86;100.00
23677;BME280;31493;49.058;12.190;2023-03-02T03:42:12;96102.41;;;-0.92;100.00
23677;BME280;31493;49.058;12.190;2023-03-02T03:44:39;96095.78;;;-0.99;100.00
23677;BME280;31493;49.058;12.190;2023-03-02T03:47:07;96098.38;;;-1.01;100.00
23677;BME280;31493;49.058;12.190;2023-03-02T03:49:34;96096.75;;;-1.03;100.00
23677;BME280;31493;49.058;12.190;2023-03-02T03:52:01;96090.03;;;-1.08;100.00
23677;BME280;31493;49.058;12.190;2023-03-02T03:54:29;96090.19;;;-1.14;100.00
23677;BME280;31493;49.058;12.190;2023-03-02T03:56:56;96084.25;;;-1.14;100.00
23677;BME280;31493;49.058;12.190;2023-03-02T03:59:25;96098.72;;;-1.16;100.00
23677;BME280;31493;49.058;12.190;2023-03-02T04:01:55;96085.16;;;-1.17;100.00
23677;BME280;31493;49.058;12.190;2023-03-02T04:04:25;96093.63;;;-1.16;100.00
23677;BME280;31493;49.058;12.190;2023-03-02T04:06:53;96089.47;;;-1.20;100.00
23677;BME280;31493;49.058;12.190;2023-03-02T04:09:20;96092.09;;;-1.25;100.00
23677;BME280;31493;49.058;12.190;2023-03-02T04:11:50;96094.59;;;-1.22;100.00
23677;BME280;31493;49.058;12.190;2023-03-02T04:14:18;96097.19;;;-1.25;100.00
23677;BME280;31493;49.058;12.190;2023-03-02T04:16:46;96085.41;;;-1.29;100.00
23677;BME280;31493;49.058;12.190;2023-03-02T04:19:13;96078.69;;;-1.31;100.00
23677;BME280;31493;49.058;12.190;2023-03-02T04:21:46;96088.72;;;-1.25;100.00
23677;BME280;31493;49.058;12.190;2023-03-02T04:24:14;96091.38;;;-1.30;100.00
23677;BME280;31493;49.058;12.190;2023-03-02T04:26:42;96093.81;;;-1.25;100.00
23677;BME280;31493;49.058;12.190;2023-03-02T04:29:11;96084.53;;;-1.26;100.00
23677;BME280;31493;49.058;12.190;2023-03-02T04:31:38;96092.88;;;-1.21;100.00
23677;BME280;31493;49.058;12.190;2023-03-02T04:34:06;96090.34;;;-1.21;100.00
23677;BME280;31493;49.058;12.190;2023-03-02T04:36:36;96082.78;;;-1.24;100.00
23677;BME280;31493;49.058;12.190;2023-03-02T04:39:05;96083.59;;;-1.22;100.00
23677;BME280;31493;49.058;12.190;2023-03-02T04:41:33;96084.53;;;-1.26;100.00
23677;BME280;31493;49.058;12.190;2023-03-02T04:44:00;96085.44;;;-1.30;100.00
23677;BME280;31493;49.058;12.190;2023-03-02T04:46:27;96090.50;;;-1.29;100.00
23677;BME280;31493;49.058;12.190;2023-03-02T04:48:55;96078.56;;;-1.25;100.00
23677;BME280;31493;49.058;12.190;2023-03-02T04:51:24;96082.91;;;-1.30;100.00
23677;BME280;31493;49.058;12.190;2023-03-02T04:53:52;96083.66;;;-1.25;100.00
23677;BME280;31493;49.058;12.190;2023-03-02T04:56:21;96080.28;;;-1.26;100.00
23677;BME280;31493;49.058;12.190;2023-03-02T04:58:49;96076.16;;;-1.31;100.00
23677;BME280;31493;49.058;12.190;2023-03-02T05:01:18;96088.81;;;-1.30;100.00
23677;BME280;31493;49.058;12.190;2023-03-02T05:03:45;96075.16;;;-1.24;100.00
23677;BME280;31493;49.058;12.190;2023-03-02T05:06:13;96087.09;;;-1.28;100.00
23677;BME280;31493;49.058;12.190;2023-03-02T05:08:41;96082.88;;;-1.29;100.00
23677;BME280;31493;49.058;12.190;2023-03-02T05:11:10;96075.16;;;-1.24;100.00
23677;BME280;31493;49.058;12.190;2023-03-02T05:13:41;96081.16;;;-1.27;100.00
23677;BME280;31493;49.058;12.190;2023-03-02T05:16:08;96081.19;;;-1.28;100.00
23677;BME280;31493;49.058;12.190;2023-03-02T05:18:35;96073.53;;;-1.27;100.00
23677;BME280;31493;49.058;12.190;2023-03-02T05:21:03;96076.16;;;-1.31;100.00
23677;BME280;31493;49.058;12.190;2023-03-02T05:23:30;96070.16;;;-1.27;100.00
23677;BME280;31493;49.058;12.190;2023-03-02T05:25:57;96079.50;;;-1.29;100.00
23677;BME280;31493;49.058;12.190;2023-03-02T05:28:25;96068.50;;;-1.28;100.00
23677;BME280;31493;49.058;12.190;2023-03-02T05:30:53;96074.38;;;-1.26;100.00
23677;BME280;31493;49.058;12.190;2023-03-02T05:33:21;96077.84;;;-1.30;100.00
23677;BME280;31493;49.058;12.190;2023-03-02T05:35:48;96077.13;;;-1.37;100.00
23677;BME280;31493;49.058;12.190;2023-03-02T05:38:15;96077.06;;;-1.34;100.00
23677;BME280;31493;49.058;12.190;2023-03-02T05:40:42;96079.63;;;-1.36;100.00
23677;BME280;31493;49.058;12.190;2023-03-02T05:43:14;96072.97;;;-1.40;100.00
23677;BME280;31493;49.058;12.190;2023-03-02T05:45:41;96077.22;;;-1.42;100.00
23677;BME280;31493;49.058;12.190;2023-03-02T05:48:11;96077.16;;;-1.39;100.00
23677;BME280;31493;49.058;12.190;2023-03-02T05:50:38;96085.72;;;-1.43;100.00
23677;BME280;31493;49.058;12.190;2023-03-02T05:53:05;96076.38;;;-1.41;100.00
23677;BME280;31493;49.058;12.190;2023-03-02T05:55:33;96073.16;;;-0.73;100.00
23677;BME280;31493;49.058;12.190;2023-03-02T05:58:01;96075.09;;;-1.21;100.00
23677;BME280;31493;49.058;12.190;2023-03-02T06:00:28;96088.81;;;-1.30;100.00
23677;BME280;31493;49.058;12.190;2023-03-02T06:02:55;96089.88;;;-1.39;100.00
23677;BME280;31493;49.058;12.190;2023-03-02T06:05:24;96090.78;;;-1.41;100.00
23677;BME280;31493;49.058;12.190;2023-03-02T06:07:51;96080.56;;;-1.40;100.00
23677;BME280;31493;49.058;12.190;2023-03-02T06:10:18;96087.72;;;-1.18;100.00
23677;BME280;31493;49.058;12.190;2023-03-02T06:12:45;96091.47;;;-0.59;100.00
23677;BME280;31493;49.058;12.190;2023-03-02T06:15:12;96085.50;;;-0.58;100.00
23677;BME280;31493;49.058;12.190;2023-03-02T06:17:39;96092.09;;;-0.86;100.00
23677;BME280;31493;49.058;12.190;2023-03-02T06:20:08;96099.16;;;-0.62;100.00
23677;BME280;31493;49.058;12.190;2023-03-02T06:22:37;96099.97;;;-0.60;100.00
23677;BME280;31493;49.058;12.190;2023-03-02T06:25:07;96107.16;;;-0.77;100.00
23677;BME280;31493;49.058;12.190;2023-03-02T06:27:36;96091.81;;;-0.74;100.00
23677;BME280;31493;49.058;12.190;2023-03-02T06:30:05;96096.84;;;-0.71;100.00
23677;BME280;31493;49.058;12.190;2023-03-02T06:32:32;96100.56;;;-0.50;100.00
23677;BME280;31493;49.058;12.190;2023-03-02T06:37:37;96100.56;;;-0.48;100.00
23677;BME280;31493;49.058;12.190;2023-03-02T06:41:18;96113.56;;;-0.61;100.00
23677;BME280;31493;49.058;12.190;2023-03-02T06:43:46;96118.41;;;-0.51;100.00
23677;BME280;31493;49.058;12.190;2023-03-02T06:46:13;96101.25;;;-0.43;100.00
23677;BME280;31493;49.058;12.190;2023-03-02T06:48:40;96102.31;;;-0.52;100.00
23677;BME280;31493;49.058;12.190;2023-03-02T06:51:07;96099.78;;;-0.52;100.00
23677;BME280;31493;49.058;12.190;2023-03-02T06:53:34;96097.88;;;-0.44;100.00
23677;BME280;31493;49.058;12.190;2023-03-02T06:56:01;96102.66;;;-0.32;100.00
23677;BME280;31493;49.058;12.190;2023-03-02T06:58:29;96099.88;;;-0.55;100.00
23677;BME280;31493;49.058;12.190;2023-03-02T07:00:56;96106.53;;;-0.51;100.00
23677;BME280;31493;49.058;12.190;2023-03-02T07:03:23;96102.25;;;-0.49;100.00
23677;BME280;31493;49.058;12.190;2023-03-02T07:05:50;96105.50;;;-0.44;100.00
23677;BME280;31493;49.058;12.190;2023-03-02T07:08:17;96107.94;;;-0.39;100.00
23677;BME280;31493;49.058;12.190;2023-03-02T07:10:44;96106.03;;;-0.31;100.00
23677;BME280;31493;49.058;12.190;2023-03-02T07:13:11;96104.28;;;-0.28;100.00
23677;BME280;31493;49.058;12.190;2023-03-02T07:15:40;96097.47;;;-0.27;100.00
23677;BME280;31493;49.058;12.190;2023-03-02T07:18:07;96100.75;;;-0.22;100.00
23677;BME280;31493;49.058;12.190;2023-03-02T07:20:34;96096.28;;;-0.14;100.00
23677;BME280;31493;49.058;12.190;2023-03-02T07:23:01;96103.59;;;-0.02;100.00
23677;BME280;31493;49.058;12.190;2023-03-02T07:25:28;96101.72;;;0.05;100.00
23677;BME280;31493;49.058;12.190;2023-03-02T07:27:55;96096.47;;;0.13;100.00
23677;BME280;31493;49.058;12.190;2023-03-02T07:30:22;96099.00;;;0.13;100.00
23677;BME280;31493;49.058;12.190;2023-03-02T07:32:50;96103.06;;;0.20;100.00
23677;BME280;31493;49.058;12.190;2023-03-02T07:35:17;96100.97;;;0.34;100.00
23677;BME280;31493;49.058;12.190;2023-03-02T07:37:44;96095.53;;;0.46;100.00
23677;BME280;31493;49.058;12.190;2023-03-02T07:40:12;96104.78;;;0.50;100.00
23677;BME280;31493;49.058;12.190;2023-03-02T07:42:39;96097.69;;;0.60;100.00
23677;BME280;31493;49.058;12.190;2023-03-02T07:45:07;96095.19;;;0.59;100.00
23677;BME280;31493;49.058;12.190;2023-03-02T07:47:34;96101.41;;;0.78;100.00
23677;BME280;31493;49.058;12.190;2023-03-02T07:50:03;96109.06;;;0.78;100.00
23677;BME280;31493;49.058;12.190;2023-03-02T07:52:30;96112.09;;;0.91;100.00
23677;BME280;31493;49.058;12.190;2023-03-02T07:54:57;96100.09;;;0.94;100.00
23677;BME280;31493;49.058;12.190;2023-03-02T07:57:24;96094.88;;;0.99;100.00
23677;BME280;31493;49.058;12.190;2023-03-02T07:59:51;96101.28;;;1.12;100.00
23677;BME280;31493;49.058;12.190;2023-03-02T08:02:18;96105.56;;;1.10;100.00
23677;BME280;31493;49.058;12.190;2023-03-02T08:04:46;96099.25;;;1.22;100.00
23677;BME280;31493;49.058;12.190;2023-03-02T08:07:14;96104.22;;;1.26;99.16
23677;BME280;31493;49.058;12.190;2023-03-02T08:09:41;96104.09;;;1.31;99.05
23677;BME280;31493;49.058;12.190;2023-03-02T08:12:08;96111.00;;;1.27;98.75
23677;BME280;31493;49.058;12.190;2023-03-02T08:14:36;96104.59;;;1.42;98.14
23677;BME280;31493;49.058;12.190;2023-03-02T08:17:04;96113.03;;;1.44;98.22
23677;BME280;31493;49.058;12.190;2023-03-02T08:19:31;96115.94;;;1.60;97.82
23677;BME280;31493;49.058;12.190;2023-03-02T08:22:00;96111.69;;;1.59;97.29
23677;BME280;31493;49.058;12.190;2023-03-02T08:24:28;96116.59;;;1.67;96.70
23677;BME280;31493;49.058;12.190;2023-03-02T08:26:58;96112.34;;;1.66;96.14
23677;BME280;31493;49.058;12.190;2023-03-02T08:29:26;96110.91;;;1.83;95.78
23677;BME280;31493;49.058;12.190;2023-03-02T08:31:53;96114.47;;;1.79;95.73
23677;BME280;31493;49.058;12.190;2023-03-02T08:34:20;96106.34;;;1.93;95.09
23677;BME280;31493;49.058;12.190;2023-03-02T08:36:47;96095.38;;;1.89;95.01
23677;BME280;31493;49.058;12.190;2023-03-02T08:39:14;96107.81;;;2.00;94.77
23677;BME280;31493;49.058;12.190;2023-03-02T08:41:42;96098.06;;;2.11;94.48
23677;BME280;31493;49.058;12.190;2023-03-02T08:44:09;96095.50;;;2.11;93.73
23677;BME280;31493;49.058;12.190;2023-03-02T08:46:36;96092.69;;;2.19;93.50
23677;BME280;31493;49.058;12.190;2023-03-02T08:49:03;96101.50;;;2.35;93.52
23677;BME280;31493;49.058;12.190;2023-03-02T08:51:30;96092.66;;;2.44;92.89
23677;BME280;31493;49.058;12.190;2023-03-02T08:53:57;96104.38;;;2.50;92.51
23677;BME280;31493;49.058;12.190;2023-03-02T08:56:26;96091.31;;;2.57;92.25
23677;BME280;31493;49.058;12.190;2023-03-02T08:58:57;96096.59;;;2.76;91.81
23677;BME280;31493;49.058;12.190;2023-03-02T09:01:26;96095.53;;;2.82;91.12
23677;BME280;31493;49.058;12.190;2023-03-02T09:03:54;96091.09;;;2.87;91.11
23677;BME280;31493;49.058;12.190;2023-03-02T09:06:22;96085.53;;;2.99;90.92
23677;BME280;31493;49.058;12.190;2023-03-02T09:08:49;96093.81;;;3.06;90.07
23677;BME280;31493;49.058;12.190;2023-03-02T09:11:17;96090.66;;;3.21;89.38
23677;BME280;31493;49.058;12.190;2023-03-02T09:13:44;96091.44;;;3.23;89.39
23677;BME280;31493;49.058;12.190;2023-03-02T09:16:13;96082.81;;;3.47;89.04
23677;BME280;31493;49.058;12.190;2023-03-02T09:18:40;96087.41;;;3.39;89.01
23677;BME280;31493;49.058;12.190;2023-03-02T09:21:08;96090.19;;;3.33;88.28
23677;BME280;31493;49.058;12.190;2023-03-02T09:23:35;96087.84;;;3.49;87.95
23677;BME280;31493;49.058;12.190;2023-03-02T09:26:02;96094.66;;;3.50;87.33
23677;BME280;31493;49.058;12.190;2023-03-02T09:28:30;96090.72;;;3.63;87.19
23677;BME280;31493;49.058;12.190;2023-03-02T09:31:01;96083.78;;;3.65;86.27
23677;BME280;31493;49.058;12.190;2023-03-02T09:33:30;96090.97;;;3.77;86.73
23677;BME280;31493;49.058;12.190;2023-03-02T09:35:58;96094.38;;;3.78;85.82
23677;BME280;31493;49.058;12.190;2023-03-02T09:38:26;96091.31;;;3.90;85.88
23677;BME280;31493;49.058;12.190;2023-03-02T09:41:11;96081.53;;;4.00;86.24
23677;BME280;31493;49.058;12.190;2023-03-02T09:43:46;96108.41;;;4.10;86.00
23677;BME280;31493;49.058;12.190;2023-03-02T09:46:16;96096.66;;;4.06;85.56
23677;BME280;31493;49.058;12.190;2023-03-02T09:48:55;96089.88;;;4.44;84.92
23677;BME280;31493;49.058;12.190;2023-03-02T09:51:31;96093.91;;;4.50;84.97
23677;BME280;31493;49.058;12.190;2023-03-02T09:54:03;96092.03;;;4.53;82.93
23677;BME280;31493;49.058;12.190;2023-03-02T09:56:42;96101.25;;;4.57;83.84
23677;BME280;31493;49.058;12.190;2023-03-02T09:59:19;96088.63;;;4.53;82.88
23677;BME280;31493;49.058;12.190;2023-03-02T10:01:51;96101.28;;;4.76;82.77
23677;BME280;31493;49.058;12.190;2023-03-02T10:04:24;96095.47;;;4.73;82.62
23677;BME280;31493;49.058;12.190;2023-03-02T10:06:55;96089.38;;;4.75;82.56
23677;BME280;31493;49.058;12.190;2023-03-02T10:09:23;96089.91;;;4.63;81.80
23677;BME280;31493;49.058;12.190;2023-03-02T10:12:03;96097.88;;;4.76;82.47
23677;BME280;31493;49.058;12.190;2023-03-02T10:14:38;96097.78;;;4.79;81.70
23677;BME280;31493;49.058;12.190;2023-03-02T10:17:22;96097.00;;;4.96;82.01
23677;BME280;31493;49.058;12.190;2023-03-02T10:20:00;96081.28;;;5.03;80.81
23677;BME280;31493;49.058;12.190;2023-03-02T10:22:32;96078.97;;;5.16;80.74
23677;BME280;31493;49.058;12.190;2023-03-02T10:25:11;96088.66;;;5.28;80.49
23677;BME280;31493;49.058;12.190;2023-03-02T10:27:44;96087.88;;;5.26;80.73
23677;BME280;31493;49.058;12.190;2023-03-02T10:30:18;96080.22;;;5.44;80.12
23677;BME280;31493;49.058;12.190;2023-03-02T10:32:48;96079.63;;;5.38;80.07
23677;BME280;31493;49.058;12.190;2023-03-02T10:35:18;96092.81;;;5.67;79.42
23677;BME280;31493;49.058;12.190;2023-03-02T10:37:46;96087.69;;;5.67;78.87
23677;BME280;31493;49.058;12.190;2023-03-02T10:40:29;96073.41;;;5.79;78.67
23677;BME280;31493;49.058;12.190;2023-03-02T10:42:59;96082.47;;;5.86;77.60
23677;BME280;31493;49.058;12.190;2023-03-02T10:45:29;96078.41;;;5.99;77.45
23677;BME280;31493;49.058;12.190;2023-03-02T10:48:00;96075.53;;;6.05;77.05
23677;BME280;31493;49.058;12.190;2023-03-02T10:50:29;96082.13;;;5.93;76.87
23677;BME280;31493;49.058;12.190;2023-03-02T10:52:56;96079.63;;;6.09;76.25
23677;BME280;31493;49.058;12.190;2023-03-02T10:55:23;96074.53;;;5.90;75.80
23677;BME280;31493;49.058;12.190;2023-03-02T10:58:02;96072.97;;;6.05;76.46
23677;BME280;31493;49.058;12.190;2023-03-02T11:00:32;96073.59;;;6.10;77.23
23677;BME280;31493;49.058;12.190;2023-03-02T11:03:00;96078.28;;;6.02;76.34
23677;BME280;31493;49.058;12.190;2023-03-02T11:05:33;96066.47;;;5.98;77.27
23677;BME280;31493;49.058;12.190;2023-03-02T11:08:01;96068.28;;;6.13;76.39
23677;BME280;31493;49.058;12.190;2023-03-02T11:10:31;96069.47;;;6.41;76.61
23677;BME280;31493;49.058;12.190;2023-03-02T11:12:59;96072.75;;;6.27;75.02
23677;BME280;31493;49.058;12.190;2023-03-02T11:15:33;96064.25;;;6.25;75.30
23677;BME280;31493;49.058;12.190;2023-03-02T11:18:05;96074.38;;;6.45;75.97
23677;BME280;31493;49.058;12.190;2023-03-02T11:20:37;96066.19;;;6.37;75.38
23677;BME280;31493;49.058;12.190;2023-03-02T11:23:16;96061.22;;;6.34;74.88
23677;BME280;31493;49.058;12.190;2023-03-02T11:25:49;96062.75;;;6.38;74.91
23677;BME280;31493;49.058;12.190;2023-03-02T11:28:37;96069.47;;;6.57;75.69
23677;BME280;31493;49.058;12.190;2023-03-02T11:31:11;96066.88;;;6.74;74.78
23677;BME280;31493;49.058;12.190;2023-03-02T11:33:44;96048.63;;;6.79;75.16
23677;BME280;31493;49.058;12.190;2023-03-02T11:36:19;96054.50;;;6.81;75.25
23677;BME280;31493;49.058;12.190;2023-03-02T11:38:48;96057.66;;;6.86;74.13
23677;BME280;31493;49.058;12.190;2023-03-02T11:41:26;96045.13;;;6.80;74.29
23677;BME280;31493;49.058;12.190;2023-03-02T11:43:55;96033.91;;;6.65;73.95
23677;BME280;31493;49.058;12.190;2023-03-02T11:46:27;96042.31;;;6.84;73.71
23677;BME280;31493;49.058;12.190;2023-03-02T11:48:58;96032.69;;;6.72;74.02
23677;BME280;31493;49.058;12.190;2023-03-02T11:51:32;96041.75;;;6.95;73.79
23677;BME280;31493;49.058;12.190;2023-03-02T11:54:02;96049.94;;;7.17;73.97
23677;BME280;31493;49.058;12.190;2023-03-02T11:56:32;96039.31;;;7.23;72.82
23677;BME280;31493;49.058;12.190;2023-03-02T11:59:02;96052.34;;;7.05;72.77
23677;BME280;31493;49.058;12.190;2023-03-02T12:01:32;96037.25;;;7.14;73.28
23677;BME280;31493;49.058;12.190;2023-03-02T12:04:07;96029.50;;;7.46;73.18
23677;BME280;31493;49.058;12.190;2023-03-02T12:06:38;96044.16;;;7.14;72.57
23677;BME280;31493;49.058;12.190;2023-03-02T12:09:32;96037.66;;;7.38;72.34
23677;BME280;31493;49.058;12.190;2023-03-02T12:12:18;96041.41;;;7.33;72.00
23677;BME280;31493;49.058;12.190;2023-03-02T12:14:49;96029.75;;;7.41;72.15
23677;BME280;31493;49.058;12.190;2023-03-02T12:17:21;96030.06;;;7.51;71.77
23677;BME280;31493;49.058;12.190;2023-03-02T12:19:48;96035.91;;;7.99;71.12
23677;BME280;31493;49.058;12.190;2023-03-02T12:22:28;96035.09;;;7.68;70.97
23677;BME280;31493;49.058;12.190;2023-03-02T12:25:02;96025.78;;;7.66;71.05
23677;BME280;31493;49.058;12.190;2023-03-02T12:27:34;96027.22;;;7.86;70.96
23677;BME280;31493;49.058;12.190;2023-03-02T12:30:19;96016.72;;;7.74;70.70
23677;BME280;31493;49.058;12.190;2023-03-02T12:32:59;96020.50;;;7.97;70.69
23677;BME280;31493;49.058;12.190;2023-03-02T12:35:29;96007.81;;;7.80;70.28
23677;BME280;31493;49.058;12.190;2023-03-02T12:38:00;96012.41;;;7.89;69.81
23677;BME280;31493;49.058;12.190;2023-03-02T12:40:38;96012.97;;;7.94;69.75
23677;BME280;31493;49.058;12.190;2023-03-02T12:43:17;96004.78;;;8.02;69.82
23677;BME280;31493;49.058;12.190;2023-03-02T12:46:17;96005.44;;;8.05;69.29
23677;BME280;31493;49.058;12.190;2023-03-02T12:49:00;95999.69;;;8.45;69.33
23677;BME280;31493;49.058;12.190;2023-03-02T12:51:31;96001.47;;;8.28;68.74
23677;BME280;31493;49.058;12.190;2023-03-02T12:54:04;95995.63;;;8.41;68.76
23677;BME280;31493;49.058;12.190;2023-03-02T12:56:32;95993.69;;;8.30;67.85
23677;BME280;31493;49.058;12.190;2023-03-02T12:58:59;95990.06;;;8.32;68.13
23677;BME280;31493;49.058;12.190;2023-03-02T13:01:30;95998.41;;;8.66;67.74
23677;BME280;31493;49.058;12.190;2023-03-02T13:03:58;95989.38;;;8.45;67.63